createdAt,value
2022-11-16T00:00:22.082Z,94414.66
2022-11-16T00:03:23.999Z,94412.38
2022-11-16T00:06:26.618Z,94410.81
2022-11-16T00:09:29.146Z,94405.47
2022-11-16T00:12:31.560Z,94408.16
2022-11-16T00:15:35.094Z,94408.50
2022-11-16T00:18:37.092Z,94414.22
2022-11-16T00:21:39.242Z,94408.88
2022-11-16T00:24:41.247Z,94408.84
2022-11-16T00:27:43.514Z,94413.88
2022-11-16T00:30:46.890Z,94407.38
2022-11-16T00:33:49.868Z,94410.06
2022-11-16T00:36:52.215Z,94407.00
2022-11-16T00:39:54.115Z,94407.31
2022-11-16T00:42:56.137Z,94403.47
2022-11-16T00:45:59.464Z,94395.06
2022-11-16T00:49:01.733Z,94401.97
2022-11-16T00:52:03.859Z,94403.50
2022-11-16T00:55:07.211Z,94406.59
2022-11-16T00:58:09.141Z,94401.53
2022-11-16T01:01:12.738Z,94391.97
2022-11-16T01:04:14.713Z,94399.28
2022-11-16T01:07:16.778Z,94391.97
2022-11-16T01:10:21.685Z,94388.94
2022-11-16T01:13:23.607Z,94385.50
2022-11-16T01:16:27.006Z,94386.69
2022-11-16T01:19:29.446Z,94390.91
2022-11-16T01:22:32.019Z,94385.13
2022-11-16T01:25:34.012Z,94382.47
2022-11-16T01:28:36.366Z,94373.28
2022-11-16T01:31:39.987Z,94362.16
2022-11-16T01:34:41.995Z,94361.00
2022-11-16T01:37:44.235Z,94358.72
2022-11-16T01:40:46.352Z,94353.34
2022-11-16T01:43:55.315Z,94348.72
2022-11-16T01:46:58.740Z,94340.31
2022-11-16T01:50:07.419Z,94345.69
2022-11-16T01:53:11.395Z,94342.66
2022-11-16T01:56:13.506Z,94329.25
2022-11-16T01:59:16.738Z,94326.16
2022-11-16T02:02:20.158Z,94319.59
2022-11-16T02:05:30.845Z,94314.69
2022-11-16T02:08:44.823Z,94313.91
2022-11-16T02:12:02.773Z,94318.44
2022-11-16T02:15:14.169Z,94316.53
2022-11-16T02:18:30.000Z,94310.03
2022-11-16T02:21:37.499Z,94309.28
2022-11-16T02:24:47.281Z,94303.91
2022-11-16T02:28:13.201Z,94294.72
2022-11-16T02:31:20.963Z,94297.78
2022-11-16T02:34:24.698Z,94289.00
2022-11-16T02:37:31.475Z,94293.19
2022-11-16T02:40:39.340Z,94287.03
2022-11-16T02:43:44.878Z,94278.59
2022-11-16T02:46:54.263Z,94272.50
2022-11-16T02:50:01.777Z,94267.13
2022-11-16T02:53:03.962Z,94256.41
2022-11-16T02:56:06.381Z,94246.84
2022-11-16T02:59:12.141Z,94241.47
2022-11-16T03:02:25.043Z,94230.41
2022-11-16T03:05:32.341Z,94220.06
2022-11-16T03:08:37.920Z,94226.94
2022-11-16T03:11:44.935Z,94231.91
2022-11-16T03:14:52.238Z,94248.75
2022-11-16T03:17:57.396Z,94246.84
2022-11-16T03:21:06.577Z,94251.06
2022-11-16T03:24:08.824Z,94249.53
2022-11-16T03:27:21.599Z,94238.81
2022-11-16T03:30:26.166Z,94221.59
2022-11-16T03:33:32.838Z,94228.09
2022-11-16T03:36:39.514Z,94236.16
2022-11-16T03:39:42.754Z,94230.78
2022-11-16T03:42:46.073Z,94228.50
2022-11-16T03:45:48.511Z,94220.06
2022-11-16T03:48:57.151Z,94225.44
2022-11-16T03:51:59.103Z,94227.34
2022-11-16T03:55:01.027Z,94218.53
2022-11-16T03:58:02.886Z,94203.63
2022-11-16T04:01:05.077Z,94206.66
2022-11-16T04:04:08.452Z,94199.78
2022-11-16T04:07:10.512Z,94192.91
2022-11-16T04:10:12.994Z,94186.78
2022-11-16T04:13:16.547Z,94180.66
2022-11-16T04:16:18.738Z,94193.31
2022-11-16T04:19:22.153Z,94192.91
2022-11-16T04:22:28.608Z,94182.94
2022-11-16T04:25:34.171Z,94181.41
2022-11-16T04:28:37.072Z,94181.78
2022-11-16T04:31:39.668Z,94177.19
2022-11-16T04:34:42.902Z,94170.66
2022-11-16T04:37:44.796Z,94170.28
2022-11-16T04:40:46.752Z,94161.47
2022-11-16T04:43:48.627Z,94160.72
2022-11-16T04:46:50.553Z,94154.59
2022-11-16T04:49:53.810Z,94160.72
2022-11-16T04:52:55.696Z,94157.25
2022-11-16T04:56:00.663Z,94164.16
2022-11-16T04:59:03.010Z,94162.59
2022-11-16T05:02:05.058Z,94172.56
2022-11-16T05:05:09.304Z,94174.06
2022-11-16T05:08:11.188Z,94169.13
2022-11-16T05:11:13.067Z,94166.09
2022-11-16T05:14:15.002Z,94174.50
2022-11-16T05:17:18.023Z,94168.38
2022-11-16T05:20:21.523Z,94169.16
2022-11-16T05:23:23.452Z,94168.38
2022-11-16T05:26:25.459Z,94174.53
2022-11-16T05:29:27.493Z,94179.13
2022-11-16T05:32:29.485Z,94184.84
2022-11-16T05:35:32.829Z,94180.63
2022-11-16T05:38:34.900Z,94178.34
2022-11-16T05:41:36.989Z,94182.53
2022-11-16T05:44:39.171Z,94192.53
2022-11-16T05:47:41.060Z,94193.28
2022-11-16T05:50:44.325Z,94187.53
2022-11-16T05:53:47.313Z,94193.66
2022-11-16T05:56:49.554Z,94199.38
2022-11-16T05:59:51.450Z,94214.69
2022-11-16T06:02:53.373Z,94216.63
2022-11-16T06:05:57.319Z,94215.84
2022-11-16T06:08:59.348Z,94217.78
2022-11-16T06:12:01.246Z,94236.94
2022-11-16T06:15:03.474Z,94233.47
2022-11-16T06:18:06.517Z,94246.50
2022-11-16T06:21:10.368Z,94246.50
2022-11-16T06:24:12.279Z,94261.44
2022-11-16T06:27:14.154Z,94267.94
2022-11-16T06:30:16.421Z,94284.03
2022-11-16T06:33:18.727Z,94284.38
2022-11-16T06:36:22.030Z,94290.13
2022-11-16T06:39:23.853Z,94296.59
2022-11-16T06:42:25.802Z,94310.00
2022-11-16T06:45:27.879Z,94316.88
2022-11-16T06:48:30.769Z,94322.25
2022-11-16T06:51:34.175Z,94309.25
2022-11-16T06:54:36.072Z,94320.31
2022-11-16T06:57:37.974Z,94308.78
2022-11-16T07:00:40.012Z,94316.09
2022-11-16T07:03:41.959Z,94324.19
2022-11-16T07:06:45.224Z,94331.84
2022-11-16T07:09:47.141Z,94330.31
2022-11-16T07:12:49.021Z,94332.63
2022-11-16T07:15:50.948Z,94326.88
2022-11-16T07:18:53.000Z,94337.19
2022-11-16T07:21:56.254Z,94341.41
2022-11-16T07:24:58.153Z,94334.50
2022-11-16T07:28:00.076Z,94345.63
2022-11-16T07:31:02.661Z,94351.34
2022-11-16T07:34:04.719Z,94349.81
2022-11-16T07:37:08.055Z,94355.56
2022-11-16T07:40:10.630Z,94358.94
2022-11-16T07:43:12.654Z,94361.16
2022-11-16T07:49:38.804Z,94357.81
2022-11-16T07:52:42.082Z,94353.25
2022-11-16T07:55:43.946Z,94360.50
2022-11-16T07:58:45.860Z,94357.09
2022-11-16T08:01:48.279Z,94353.69
2022-11-16T08:04:50.767Z,94350.28
2022-11-16T08:07:53.999Z,94360.19
2022-11-16T08:10:59.683Z,94357.91
2022-11-16T08:14:01.665Z,94359.06
2022-11-16T08:17:03.615Z,94362.53
2022-11-16T08:20:06.619Z,94362.16
2022-11-16T08:23:09.880Z,94364.84
2022-11-16T08:26:13.737Z,94364.09
2022-11-16T08:29:15.964Z,94360.28
2022-11-16T08:32:17.829Z,94364.50
2022-11-16T08:35:19.734Z,94361.03
2022-11-16T08:38:22.968Z,94368.72
2022-11-16T08:41:24.910Z,94369.13
2022-11-16T08:44:27.005Z,94371.41
2022-11-16T08:47:29.005Z,94366.81
2022-11-16T08:50:33.455Z,94368.31
2022-11-16T08:53:43.075Z,94377.13
2022-11-16T08:56:45.097Z,94375.25
2022-11-16T08:59:46.988Z,94377.94
2022-11-16T09:02:48.912Z,94381.34
2022-11-16T09:05:50.799Z,94380.63
2022-11-16T09:08:54.539Z,94377.94
2022-11-16T09:11:56.402Z,94376.03
2022-11-16T09:14:58.315Z,94377.94
2022-11-16T09:18:00.267Z,94371.81
2022-11-16T09:21:02.308Z,94377.56
2022-11-16T09:24:06.074Z,94377.59
2022-11-16T09:27:08.015Z,94377.97
2022-11-16T09:30:11.053Z,94378.66
2022-11-16T09:33:12.989Z,94378.69
2022-11-16T09:36:14.883Z,94371.41
2022-11-16T09:39:33.512Z,94372.59
2022-11-16T09:42:50.939Z,94370.22
2022-11-16T09:46:00.895Z,94359.50
2022-11-16T09:49:17.273Z,94359.16
2022-11-16T09:52:29.534Z,94359.91
2022-11-16T09:55:37.991Z,94355.72
2022-11-16T09:58:46.179Z,94359.16
2022-11-16T10:01:52.710Z,94355.34
2022-11-16T10:05:00.073Z,94347.69
2022-11-16T10:08:10.517Z,94347.69
2022-11-16T10:11:31.727Z,94341.94
2022-11-16T10:14:50.707Z,94346.16
2022-11-16T10:18:04.515Z,94333.16
2022-11-16T10:21:35.577Z,94329.34
2022-11-16T10:24:56.350Z,94322.44
2022-11-16T10:28:31.299Z,94308.25
2022-11-16T10:31:54.145Z,94302.53
2022-11-16T10:35:03.676Z,94313.25
2022-11-16T10:38:12.973Z,94299.13
2022-11-16T10:41:17.884Z,94307.91
2022-11-16T10:44:32.716Z,94310.59
2022-11-16T10:47:39.291Z,94305.22
2022-11-16T10:50:44.102Z,94296.81
2022-11-16T10:53:46.375Z,94298.72
2022-11-16T10:56:51.972Z,94287.97
2022-11-16T10:59:56.508Z,94290.66
2022-11-16T11:02:58.386Z,94287.19
2022-11-16T11:06:00.452Z,94291.44
2022-11-16T11:09:14.964Z,94284.13
2022-11-16T11:12:18.328Z,94273.03
2022-11-16T11:15:26.130Z,94271.13
2022-11-16T11:18:28.737Z,94267.69
2022-11-16T11:21:30.918Z,94265.72
2022-11-16T11:24:48.262Z,94269.56
2022-11-16T11:27:52.089Z,94258.81
2022-11-16T11:31:00.300Z,94259.94
2022-11-16T11:34:14.329Z,94254.97
2022-11-16T11:37:18.625Z,94245.75
2022-11-16T11:40:23.468Z,94252.66
2022-11-16T11:43:26.878Z,94251.13
2022-11-16T11:47:11.044Z,94236.94
2022-11-16T11:50:05.804Z,94241.88
2022-11-16T11:53:20.879Z,94236.91
2022-11-16T11:56:23.798Z,94243.41
2022-11-16T11:59:27.203Z,94241.13
2022-11-16T12:02:43.162Z,94240.34
2022-11-16T12:06:02.278Z,94236.88
2022-11-16T12:09:23.831Z,94233.41
2022-11-16T12:12:45.389Z,94246.06
2022-11-16T12:16:02.782Z,94241.81
2022-11-16T12:19:36.032Z,94244.88
2022-11-16T12:23:02.686Z,94238.00
2022-11-16T12:26:14.626Z,94232.97
2022-11-16T12:29:25.133Z,94239.88
2022-11-16T12:32:45.546Z,94234.91
2022-11-16T12:36:01.160Z,94232.63
2022-11-16T12:39:15.831Z,94233.72
2022-11-16T12:42:29.776Z,94233.31
2022-11-16T12:45:44.915Z,94237.94
2022-11-16T12:49:13.082Z,94241.75
2022-11-16T12:52:35.026Z,94237.13
2022-11-16T12:55:45.850Z,94238.63
2022-11-16T12:59:14.765Z,94231.75
2022-11-16T13:02:29.983Z,94237.09
2022-11-16T13:05:44.169Z,94242.44
2022-11-16T13:08:52.364Z,94246.16
2022-11-16T13:11:57.329Z,94244.25
2022-11-16T13:15:02.155Z,94243.44
2022-11-16T13:18:07.465Z,94251.50
2022-11-16T13:21:20.683Z,94250.38
2022-11-16T13:24:46.526Z,94243.13
2022-11-16T13:27:53.242Z,94250.41
2022-11-16T13:31:02.832Z,94256.53
2022-11-16T13:34:07.614Z,94255.41
2022-11-16T13:37:46.251Z,94251.19
2022-11-16T13:40:49.823Z,94247.72
2022-11-16T13:43:51.849Z,94245.47
2022-11-16T13:46:57.652Z,94253.84
2022-11-16T13:50:01.504Z,94260.06
2022-11-16T13:53:57.582Z,94256.56
2022-11-16T13:56:48.000Z,94258.13
2022-11-16T13:59:56.562Z,94251.22
2022-11-16T14:03:26.309Z,94254.25
2022-11-16T14:06:57.608Z,94253.16
2022-11-16T14:10:00.341Z,94254.69
2022-11-16T14:13:04.524Z,94249.31
2022-11-16T14:16:40.001Z,94255.47
2022-11-16T14:19:53.634Z,94259.28
2022-11-16T14:23:09.850Z,94257.75
2022-11-16T14:26:21.857Z,94260.47
2022-11-16T14:29:52.936Z,94256.63
2022-11-16T14:32:56.741Z,94252.41
2022-11-16T14:36:00.273Z,94258.19
2022-11-16T14:39:23.472Z,94263.16
2022-11-16T14:42:27.818Z,94253.19
2022-11-16T14:45:33.731Z,94256.22
2022-11-16T14:48:43.548Z,94253.13
2022-11-16T14:51:49.061Z,94263.13
2022-11-16T14:54:54.849Z,94254.69
2022-11-16T14:58:16.548Z,94248.16
2022-11-16T15:01:24.020Z,94253.16
2022-11-16T15:04:26.806Z,94253.94
2022-11-16T15:07:30.017Z,94253.91
2022-11-16T15:10:32.237Z,94249.31
2022-11-16T15:13:35.897Z,94251.22
2022-11-16T15:16:49.160Z,94242.38
2022-11-16T15:19:55.525Z,94245.50
2022-11-16T15:22:59.676Z,94242.75
2022-11-16T15:26:01.596Z,94243.53
2022-11-16T15:29:03.862Z,94239.25
2022-11-16T15:32:15.879Z,94244.25
2022-11-16T15:35:21.341Z,94236.56
2022-11-16T15:38:25.901Z,94237.72
2022-11-16T15:41:28.274Z,94238.06
2022-11-16T15:44:31.260Z,94237.69
2022-11-16T15:47:36.824Z,94228.94
2022-11-16T15:50:39.065Z,94235.41
2022-11-16T15:53:42.798Z,94230.34
2022-11-16T15:56:44.715Z,94239.22
2022-11-16T15:59:49.595Z,94238.41
2022-11-16T16:02:54.705Z,94238.81
2022-11-16T16:05:56.823Z,94244.94
2022-11-16T16:09:05.495Z,94243.44
2022-11-16T16:12:17.420Z,94233.84
2022-11-16T16:15:24.876Z,94237.69
2022-11-16T16:18:28.367Z,94232.28
2022-11-16T16:21:42.530Z,94233.06
2022-11-16T16:24:46.395Z,94229.22
2022-11-16T16:27:48.237Z,94232.66
2022-11-16T16:30:51.336Z,94238.47
2022-11-16T16:33:54.957Z,94236.94
2022-11-16T16:36:57.402Z,94236.94
2022-11-16T16:40:00.270Z,94234.19
2022-11-16T16:43:02.378Z,94225.38
2022-11-16T16:46:05.179Z,94228.06
2022-11-16T16:49:09.193Z,94232.28
2022-11-16T16:52:12.713Z,94220.75
2022-11-16T16:55:14.863Z,94225.75
2022-11-16T16:58:17.126Z,94226.91
2022-11-16T17:01:19.826Z,94231.50
2022-11-16T17:04:23.698Z,94230.75
2022-11-16T17:07:26.386Z,94231.13
2022-11-16T17:10:28.461Z,94238.81
2022-11-16T17:13:30.968Z,94233.03
2022-11-16T17:16:33.979Z,94232.66
2022-11-16T17:19:40.267Z,94224.94
2022-11-16T17:22:43.882Z,94224.94
2022-11-16T17:25:50.806Z,94224.59
2022-11-16T17:28:55.583Z,94209.59
2022-11-16T17:31:59.516Z,94222.25
2022-11-16T17:35:04.159Z,94216.88
2022-11-16T17:38:07.229Z,94213.44
2022-11-16T17:41:12.890Z,94218.81
2022-11-16T17:44:21.242Z,94226.50
2022-11-16T17:47:24.310Z,94223.81
2022-11-16T17:50:28.308Z,94227.66
2022-11-16T17:53:32.942Z,94224.22
2022-11-16T17:56:35.986Z,94217.69
2022-11-16T17:59:38.773Z,94218.47
2022-11-16T18:02:41.812Z,94227.72
2022-11-16T18:05:46.105Z,94222.34
2022-11-16T18:08:48.726Z,94224.25
2022-11-16T18:11:51.539Z,94226.94
2022-11-16T18:15:21.224Z,94228.47
2022-11-16T18:18:17.148Z,94221.94
2022-11-16T18:21:21.875Z,94230.78
2022-11-16T18:24:24.707Z,94227.31
2022-11-16T18:27:27.641Z,94223.50
2022-11-16T18:30:30.040Z,94220.06
2022-11-16T18:33:33.406Z,94220.81
2022-11-16T18:36:40.277Z,94206.25
2022-11-16T18:39:42.888Z,94198.56
2022-11-16T18:42:45.769Z,94197.81
2022-11-16T18:45:48.530Z,94199.00
2022-11-16T18:48:51.885Z,94194.78
2022-11-16T18:51:56.288Z,94200.16
2022-11-16T18:54:59.644Z,94196.31
2022-11-16T18:58:06.478Z,94194.81
2022-11-16T19:01:18.434Z,94201.75
2022-11-16T19:04:21.984Z,94195.22
2022-11-16T19:07:26.644Z,94196.44
2022-11-16T19:10:29.287Z,94189.53
2022-11-16T19:13:32.699Z,94179.22
2022-11-16T19:16:36.215Z,94174.88
2022-11-16T19:19:39.447Z,94173.44
2022-11-16T19:22:43.914Z,94161.16
2022-11-16T19:25:47.608Z,94165.38
2022-11-16T19:28:51.141Z,94159.25
2022-11-16T19:31:54.078Z,94156.16
2022-11-16T19:34:57.226Z,94159.63
2022-11-16T19:38:01.288Z,94163.06
2022-11-16T19:44:22.733Z,94169.22
2022-11-16T19:47:25.498Z,94163.47
2022-11-16T19:50:28.596Z,94163.81
2022-11-16T19:53:33.003Z,94170.44
2022-11-16T19:56:36.828Z,94161.56
2022-11-16T19:59:40.417Z,94153.50
2022-11-16T20:02:43.494Z,94148.88
2022-11-16T20:05:47.213Z,94148.53
2022-11-16T20:08:52.474Z,94138.63
2022-11-16T20:11:55.782Z,94142.09
2022-11-16T20:14:58.302Z,94144.75
2022-11-16T20:18:02.566Z,94130.56
2022-11-16T20:21:06.798Z,94124.44
2022-11-16T20:24:14.190Z,94120.19
2022-11-16T20:27:17.400Z,94109.44
2022-11-16T20:30:20.552Z,94107.94
2022-11-16T20:33:23.094Z,94104.50
2022-11-16T20:36:27.027Z,94103.03
2022-11-16T20:39:31.324Z,94105.31
2022-11-16T20:42:33.904Z,94100.78
2022-11-16T20:45:36.534Z,94105.44
2022-11-16T20:48:40.312Z,94106.25
2022-11-16T20:51:42.596Z,94105.16
2022-11-16T20:54:46.664Z,94105.91
2022-11-16T20:57:49.119Z,94090.94
2022-11-16T21:00:51.563Z,94096.28
2022-11-16T21:03:54.030Z,94098.56
2022-11-16T21:06:56.607Z,94100.13
2022-11-16T21:10:00.262Z,94095.91
2022-11-16T21:13:02.849Z,94091.25
2022-11-16T21:16:06.957Z,94093.84
2022-11-16T21:19:08.968Z,94095.31
2022-11-16T21:22:11.038Z,94088.97
2022-11-16T21:25:14.345Z,94085.84
2022-11-16T21:28:22.713Z,94082.38
2022-11-16T21:31:28.568Z,94082.38
2022-11-16T21:34:31.379Z,94091.97
2022-11-16T21:37:35.490Z,94103.91
2022-11-16T21:40:38.868Z,94109.22
2022-11-16T21:43:40.855Z,94107.50
2022-11-16T21:46:42.802Z,94116.34
2022-11-16T21:50:09.820Z,94105.22
2022-11-16T21:53:07.762Z,94111.75
2022-11-16T21:56:14.905Z,94115.53
2022-11-16T21:59:16.763Z,94117.09
2022-11-16T22:02:18.730Z,94110.16
2022-11-16T22:05:20.768Z,94108.97
2022-11-16T22:08:22.764Z,94105.56
2022-11-16T22:11:26.145Z,94099.00
2022-11-16T22:14:28.042Z,94099.38
2022-11-16T22:17:29.923Z,94099.75
2022-11-16T22:20:31.842Z,94096.34
2022-11-16T22:23:34.928Z,94088.69
2022-11-16T22:26:38.573Z,94092.88
2022-11-16T22:29:40.650Z,94101.69
2022-11-16T22:32:42.621Z,94102.13
2022-11-16T22:35:46.998Z,94100.94
2022-11-16T22:38:49.016Z,94091.78
2022-11-16T22:41:52.373Z,94094.84
2022-11-16T22:44:54.322Z,94098.69
2022-11-16T22:47:56.203Z,94100.56
2022-11-16T22:51:06.222Z,94108.25
2022-11-16T22:54:10.463Z,94108.25
2022-11-16T22:57:13.736Z,94105.97
2022-11-16T23:00:15.980Z,94100.97
2022-11-16T23:03:18.047Z,94111.69
2022-11-16T23:06:20.340Z,94115.91
2022-11-16T23:09:22.313Z,94098.66
2022-11-16T23:12:25.672Z,94090.22
2022-11-16T23:15:27.604Z,94076.81
2022-11-16T23:18:29.494Z,94076.41
2022-11-16T23:21:31.388Z,94076.06
2022-11-16T23:24:33.230Z,94065.34
2022-11-16T23:27:40.816Z,94064.19
2022-11-16T23:30:42.863Z,94060.72
2022-11-16T23:33:44.849Z,94058.81
2022-11-16T23:36:46.738Z,94050.38
2022-11-16T23:39:48.781Z,94046.56
2022-11-16T23:42:53.365Z,94045.75
2022-11-16T23:45:55.298Z,94046.16
2022-11-16T23:48:58.118Z,94034.28
2022-11-16T23:52:00.075Z,94047.72
2022-11-16T23:55:02.049Z,94047.69
2022-11-16T23:58:05.800Z,94056.13
